createdAt,value
2018-06-01T00:01:08.615Z,99.90
2018-06-01T00:03:36.136Z,99.90
2018-06-01T00:06:03.725Z,99.90
2018-06-01T00:08:32.015Z,99.90
2018-06-01T00:10:59.509Z,99.90
2018-06-01T00:13:27.053Z,99.90
2018-06-01T00:15:54.600Z,99.90
2018-06-01T00:18:22.164Z,99.90
2018-06-01T00:20:49.661Z,99.90
2018-06-01T00:23:17.953Z,99.90
2018-06-01T00:25:45.499Z,99.90
2018-06-01T00:28:13.795Z,99.90
2018-06-01T00:30:41.317Z,99.90
2018-06-01T00:33:09.648Z,99.90
2018-06-01T00:35:37.186Z,99.90
2018-06-01T00:38:04.723Z,99.90
2018-06-01T00:40:32.249Z,99.90
2018-06-01T00:42:59.813Z,99.90
2018-06-01T00:45:27.400Z,99.90
2018-06-01T00:47:54.977Z,99.90
2018-06-01T00:50:22.522Z,99.90
2018-06-01T00:52:50.056Z,99.90
2018-06-01T00:55:24.309Z,99.90
2018-06-01T00:57:52.597Z,99.90
2018-06-01T01:00:20.138Z,99.90
2018-06-01T01:02:47.688Z,99.90
2018-06-01T01:05:16.010Z,99.90
2018-06-01T01:07:43.526Z,99.90
2018-06-01T01:10:11.066Z,99.90
2018-06-01T01:12:38.623Z,99.90
2018-06-01T01:15:06.158Z,99.90
2018-06-01T01:17:33.768Z,99.90
2018-06-01T01:20:01.314Z,99.90
2018-06-01T01:22:28.845Z,99.90
2018-06-01T01:24:56.377Z,99.90
2018-06-01T01:27:23.956Z,99.90
2018-06-01T01:29:51.496Z,99.90
2018-06-01T01:32:19.005Z,99.90
2018-06-01T01:34:47.338Z,99.90
2018-06-01T01:37:15.702Z,99.90
2018-06-01T01:39:43.229Z,99.90
2018-06-01T01:42:10.830Z,99.90
2018-06-01T01:44:38.339Z,99.90
2018-06-01T01:47:06.673Z,99.90
2018-06-01T01:49:34.192Z,99.90
2018-06-01T01:52:01.746Z,99.90
2018-06-01T01:54:29.274Z,99.90
2018-06-01T01:56:56.841Z,99.90
2018-06-01T01:59:24.379Z,99.90
2018-06-01T02:01:51.917Z,99.90
2018-06-01T02:04:19.503Z,99.90
2018-06-01T02:06:47.024Z,99.90
2018-06-01T02:09:14.558Z,99.90
2018-06-01T02:11:42.110Z,99.90
2018-06-01T02:14:10.530Z,99.90
2018-06-01T02:16:38.088Z,99.90
2018-06-01T02:19:05.621Z,99.90
2018-06-01T02:21:33.172Z,99.90
2018-06-01T02:24:00.753Z,99.90
2018-06-01T02:26:28.280Z,99.90
2018-06-01T02:28:56.577Z,99.90
2018-06-01T02:31:24.104Z,99.90
2018-06-01T02:33:52.428Z,99.90
2018-06-01T02:36:20.014Z,99.90
2018-06-01T02:38:47.558Z,99.90
2018-06-01T02:41:36.843Z,99.90
2018-06-01T02:44:04.349Z,99.90
2018-06-01T02:46:31.922Z,99.90
2018-06-01T02:48:59.450Z,99.90
2018-06-01T02:51:26.983Z,99.90
2018-06-01T02:53:54.540Z,99.90
2018-06-01T02:56:22.056Z,99.90
2018-06-01T02:58:49.615Z,99.90
2018-06-01T03:01:17.144Z,99.90
2018-06-01T03:03:45.536Z,99.90
2018-06-01T03:06:13.076Z,99.90
2018-06-01T03:08:40.651Z,99.90
2018-06-01T03:11:08.975Z,99.90
2018-06-01T03:13:36.587Z,99.90
2018-06-01T03:16:04.940Z,99.90
2018-06-01T03:18:32.469Z,99.90
2018-06-01T03:20:59.998Z,99.90
2018-06-01T03:23:27.531Z,99.90
2018-06-01T03:25:55.069Z,99.90
2018-06-01T03:28:22.589Z,99.90
2018-06-01T03:30:50.159Z,99.90
2018-06-01T03:33:17.692Z,99.90
2018-06-01T03:35:45.262Z,99.90
2018-06-01T03:38:12.822Z,99.90
2018-06-01T03:40:40.354Z,99.90
2018-06-01T03:43:08.658Z,99.90
2018-06-01T03:45:36.215Z,99.90
2018-06-01T03:48:03.790Z,99.90
2018-06-01T03:50:31.300Z,99.90
2018-06-01T03:52:59.638Z,99.90
2018-06-01T03:55:27.212Z,99.90
2018-06-01T03:57:54.714Z,99.90
2018-06-01T04:00:22.315Z,99.90
2018-06-01T04:02:49.852Z,99.90
2018-06-01T04:05:17.374Z,99.90
2018-06-01T04:07:45.646Z,99.90
2018-06-01T04:10:13.186Z,99.90
2018-06-01T04:12:40.709Z,99.90
2018-06-01T04:15:08.304Z,99.90
2018-06-01T04:17:35.837Z,99.90
2018-06-01T04:20:03.368Z,99.90
2018-06-01T04:22:30.918Z,99.90
2018-06-01T04:24:58.459Z,99.90
2018-06-01T04:27:26.002Z,99.90
2018-06-01T04:35:51.166Z,99.90
2018-06-01T04:38:19.462Z,99.90
2018-06-01T04:40:47.020Z,99.90
2018-06-01T04:43:14.541Z,99.90
2018-06-01T04:45:42.067Z,99.90
2018-06-01T05:02:59.379Z,99.90
2018-06-01T05:05:26.914Z,99.90
2018-06-01T05:07:54.435Z,99.90
2018-06-01T05:10:32.956Z,99.90
2018-06-01T05:13:00.495Z,99.90
2018-06-01T05:15:28.087Z,99.90
2018-06-01T05:17:55.597Z,99.90
2018-06-01T05:20:43.607Z,99.90
2018-06-01T05:23:26.012Z,99.90
2018-06-01T05:25:53.559Z,99.90
2018-06-01T05:28:21.850Z,99.90
2018-06-01T05:30:49.375Z,99.90
2018-06-01T05:33:16.897Z,99.90
2018-06-01T05:35:44.486Z,99.90
2018-06-01T05:41:22.358Z,99.90
2018-06-01T05:43:55.795Z,99.90
2018-06-01T05:46:23.357Z,99.90
2018-06-01T05:48:50.873Z,99.90
2018-06-01T05:57:15.637Z,99.90
2018-06-01T05:59:43.162Z,99.90
2018-06-01T06:02:10.683Z,99.90
2018-06-01T06:04:38.236Z,99.90
2018-06-01T06:07:05.738Z,99.90
2018-06-01T06:09:33.290Z,99.90
2018-06-01T06:12:00.833Z,99.90
2018-06-01T06:14:48.396Z,99.90
2018-06-01T06:17:15.930Z,99.90
2018-06-01T06:19:43.460Z,99.90
2018-06-01T06:22:11.050Z,99.90
2018-06-01T06:24:38.605Z,99.90
2018-06-01T06:27:06.861Z,99.90
2018-06-01T06:29:34.375Z,99.90
2018-06-01T06:32:01.905Z,99.90
2018-06-01T06:34:29.442Z,99.90
2018-06-01T06:36:57.706Z,99.90
2018-06-01T06:39:25.247Z,99.90
2018-06-01T06:41:52.772Z,99.90
2018-06-01T06:44:20.285Z,99.90
2018-06-01T06:46:47.870Z,99.90
2018-06-01T06:49:15.413Z,99.90
2018-06-01T06:51:43.713Z,99.90
2018-06-01T06:54:11.293Z,99.90
2018-06-01T06:56:38.817Z,99.90
2018-06-01T06:59:06.394Z,99.90
2018-06-01T07:01:33.901Z,99.90
2018-06-01T07:04:01.471Z,99.90
2018-06-01T07:06:29.771Z,99.90
2018-06-01T07:08:57.293Z,99.90
2018-06-01T07:11:24.876Z,99.90
2018-06-01T07:13:53.211Z,99.90
2018-06-01T07:16:20.765Z,99.90
2018-06-01T07:18:48.317Z,99.90
2018-06-01T07:21:15.855Z,99.90
2018-06-01T07:23:43.339Z,99.90
2018-06-01T07:26:10.870Z,99.90
2018-06-01T07:28:38.459Z,99.90
2018-06-01T07:31:05.994Z,99.90
2018-06-01T07:33:33.518Z,99.90
2018-06-01T07:36:01.907Z,99.90
2018-06-01T07:38:30.229Z,99.90
2018-06-01T07:40:57.797Z,99.90
2018-06-01T07:43:25.379Z,99.90
2018-06-01T07:45:52.900Z,99.90
2018-06-01T07:48:20.446Z,99.90
2018-06-01T07:50:47.966Z,99.90
2018-06-01T07:53:15.497Z,99.90
2018-06-01T07:55:43.053Z,99.90
2018-06-01T07:58:10.614Z,99.90
2018-06-01T08:00:38.154Z,99.90
2018-06-01T08:03:05.672Z,99.90
2018-06-01T08:05:33.952Z,99.90
2018-06-01T08:08:02.281Z,99.90
2018-06-01T08:10:29.793Z,99.90
2018-06-01T08:12:57.365Z,99.90
2018-06-01T08:15:24.910Z,99.90
2018-06-01T08:17:52.471Z,99.90
2018-06-01T08:20:20.116Z,99.90
2018-06-01T08:22:47.631Z,99.90
2018-06-01T08:25:15.177Z,99.90
2018-06-01T08:27:42.706Z,99.90
2018-06-01T08:30:11.032Z,99.90
2018-06-01T08:32:38.564Z,99.90
2018-06-01T08:35:06.100Z,99.90
2018-06-01T08:37:34.384Z,99.90
2018-06-01T08:40:01.982Z,99.90
2018-06-01T08:42:29.510Z,99.90
2018-06-01T08:44:57.071Z,99.90
2018-06-01T08:47:24.689Z,99.90
2018-06-01T08:49:52.277Z,99.90
2018-06-01T08:52:20.564Z,99.90
2018-06-01T08:54:48.106Z,99.90
2018-06-01T08:57:16.426Z,99.90
2018-06-01T08:59:43.990Z,99.90
2018-06-01T09:02:11.550Z,99.90
2018-06-01T09:04:39.152Z,99.90
2018-06-01T09:07:06.672Z,99.90
2018-06-01T09:09:34.185Z,99.90
2018-06-01T09:12:01.788Z,99.90
2018-06-01T09:14:29.312Z,99.90
2018-06-01T09:16:57.639Z,99.90
2018-06-01T09:19:25.243Z,99.90
2018-06-01T09:21:52.803Z,99.90
2018-06-01T09:24:21.125Z,99.90
2018-06-01T09:26:48.650Z,99.90
2018-06-01T09:29:16.205Z,99.90
2018-06-01T09:31:43.731Z,99.90
2018-06-01T09:34:11.308Z,99.90
2018-06-01T09:36:38.864Z,99.90
2018-06-01T09:39:07.195Z,99.90
2018-06-01T09:41:34.713Z,99.90
2018-06-01T09:44:02.223Z,99.90
2018-06-01T09:46:29.752Z,99.30
2018-06-01T09:48:57.335Z,97.80
2018-06-01T09:51:24.865Z,97.70
2018-06-01T09:53:52.394Z,98.60
2018-06-01T09:56:19.919Z,96.30
2018-06-01T09:58:47.499Z,93.40
2018-06-01T10:01:15.031Z,96.20
2018-06-01T10:03:42.525Z,96.50
2018-06-01T10:06:10.072Z,92.70
2018-06-01T10:08:38.366Z,96.10
2018-06-01T10:11:08.847Z,95.80
2018-06-01T10:13:36.348Z,95.50
2018-06-01T10:16:03.909Z,93.00
2018-06-01T10:18:32.182Z,94.00
2018-06-01T10:21:00.474Z,98.60
2018-06-01T10:23:28.060Z,98.60
2018-06-01T10:25:55.636Z,93.00
2018-06-01T10:28:23.171Z,93.10
2018-06-01T10:30:50.696Z,91.60
2018-06-01T10:33:18.259Z,93.40
2018-06-01T10:35:45.863Z,91.20
2018-06-01T10:38:13.436Z,93.30
2018-06-01T10:40:40.990Z,89.70
2018-06-01T10:43:08.528Z,90.90
2018-06-01T10:45:36.091Z,84.80
2018-06-01T10:48:03.615Z,87.30
2018-06-01T10:50:31.973Z,88.30
2018-06-01T10:52:59.501Z,88.20
2018-06-01T10:55:27.056Z,89.40
2018-06-01T10:57:54.603Z,91.80
2018-06-01T11:00:22.149Z,92.60
2018-06-01T11:02:49.676Z,85.50
2018-06-01T11:05:18.017Z,91.00
2018-06-01T11:07:45.625Z,90.90
2018-06-01T11:10:13.150Z,88.20
2018-06-01T11:12:40.723Z,87.50
2018-06-01T11:15:08.338Z,88.60
2018-06-01T11:17:35.931Z,88.90
2018-06-01T11:20:03.494Z,86.60
2018-06-01T11:22:31.093Z,85.50
2018-06-01T11:24:58.609Z,84.80
2018-06-01T11:27:26.164Z,85.20
2018-06-01T11:29:53.715Z,84.10
2018-06-01T11:32:21.269Z,87.20
2018-06-01T11:34:48.793Z,85.40
2018-06-01T11:37:16.329Z,86.50
2018-06-01T11:39:44.669Z,88.40
2018-06-01T11:42:12.199Z,88.20
2018-06-01T11:44:39.812Z,82.70
2018-06-01T11:47:07.346Z,86.00
2018-06-01T11:49:34.858Z,79.90
2018-06-01T11:52:02.414Z,83.20
2018-06-01T11:54:29.921Z,82.80
2018-06-01T11:56:57.523Z,79.70
2018-06-01T11:59:25.815Z,81.50
2018-06-01T12:01:53.395Z,81.50
2018-06-01T12:04:20.940Z,81.10
2018-06-01T12:06:48.460Z,82.70
2018-06-01T12:09:16.766Z,88.00
2018-06-01T12:11:44.317Z,87.90
2018-06-01T12:14:11.900Z,86.70
2018-06-01T12:16:39.429Z,86.10
2018-06-01T12:19:07.741Z,81.80
2018-06-01T12:21:35.245Z,81.80
2018-06-01T12:24:02.782Z,80.00
2018-06-01T12:26:30.372Z,74.40
2018-06-01T12:28:57.890Z,76.10
2018-06-01T12:31:25.453Z,77.50
2018-06-01T12:33:52.982Z,73.90
2018-06-01T12:36:20.490Z,74.70
2018-06-01T12:38:48.065Z,75.80
2018-06-01T12:41:15.582Z,79.10
2018-06-01T12:43:43.106Z,80.60
2018-06-01T12:46:10.698Z,82.10
2018-06-01T12:48:38.238Z,78.50
2018-06-01T12:51:05.795Z,85.70
2018-06-01T12:53:33.358Z,84.50
2018-06-01T12:56:00.890Z,83.20
2018-06-01T12:58:29.186Z,85.40
2018-06-01T13:00:56.718Z,85.40
2018-06-01T13:03:25.118Z,89.70
2018-06-01T13:05:52.597Z,89.60
2018-06-01T13:08:20.167Z,81.20
2018-06-01T13:10:47.726Z,82.90
2018-06-01T13:13:15.310Z,81.90
2018-06-01T13:15:42.875Z,79.40
2018-06-01T13:18:11.138Z,80.00
2018-06-01T13:20:38.739Z,78.30
2018-06-01T13:23:06.178Z,78.10
2018-06-01T13:25:33.728Z,80.50
2018-06-01T13:28:01.287Z,79.00
2018-06-01T13:30:28.883Z,78.70
2018-06-01T13:32:56.417Z,81.80
2018-06-01T13:35:23.927Z,82.50
2018-06-01T13:37:51.482Z,84.00
2018-06-01T13:40:18.995Z,80.20
2018-06-01T13:42:47.308Z,81.40
2018-06-01T13:45:14.852Z,81.60
2018-06-01T13:47:42.434Z,78.00
2018-06-01T13:50:09.907Z,73.90
2018-06-01T13:52:37.460Z,76.20
2018-06-01T13:55:05.017Z,74.50
2018-06-01T13:57:32.561Z,75.60
2018-06-01T14:00:00.102Z,72.70
2018-06-01T14:02:27.743Z,72.00
2018-06-01T14:04:55.287Z,76.70
2018-06-01T14:07:22.839Z,76.90
2018-06-01T14:09:50.400Z,75.00
2018-06-01T14:12:17.906Z,78.80
2018-06-01T14:14:45.469Z,80.80
2018-06-01T14:17:12.971Z,83.70
2018-06-01T14:19:40.532Z,83.60
2018-06-01T14:22:08.071Z,84.70
2018-06-01T14:24:35.680Z,83.40
2018-06-01T14:27:03.982Z,84.70
2018-06-01T14:29:31.542Z,84.70
2018-06-01T14:31:59.070Z,85.30
2018-06-01T14:34:27.371Z,85.40
2018-06-01T14:36:54.889Z,85.30
2018-06-01T14:39:22.407Z,85.50
2018-06-01T14:41:49.935Z,82.80
2018-06-01T14:44:18.215Z,78.50
2018-06-01T14:46:45.744Z,78.40
2018-06-01T14:49:13.289Z,77.50
2018-06-01T14:51:40.848Z,81.10
2018-06-01T14:54:08.397Z,76.70
2018-06-01T14:56:35.923Z,79.90
2018-06-01T14:59:05.418Z,78.90
2018-06-01T15:01:32.938Z,82.70
2018-06-01T15:04:00.521Z,81.80
2018-06-01T15:06:28.017Z,81.50
2018-06-01T15:08:55.616Z,81.50
2018-06-01T15:11:23.139Z,85.30
2018-06-01T15:13:50.756Z,79.60
2018-06-01T15:16:19.050Z,75.70
2018-06-01T15:18:46.631Z,75.30
2018-06-01T15:21:14.138Z,77.40
2018-06-01T15:23:41.690Z,79.90
2018-06-01T15:26:09.177Z,81.70
2018-06-01T15:28:36.766Z,77.00
2018-06-01T15:31:05.045Z,79.90
2018-06-01T15:33:44.419Z,79.80
2018-06-01T15:36:11.963Z,79.10
2018-06-01T15:38:39.486Z,81.40
2018-06-01T15:41:07.977Z,81.80
2018-06-01T15:43:36.215Z,77.70
2018-06-01T15:46:04.474Z,81.10
2018-06-01T15:48:46.149Z,81.30
2018-06-01T15:51:13.666Z,75.80
2018-06-01T15:53:42.005Z,77.60
2018-06-01T15:56:09.561Z,78.60
2018-06-01T15:58:37.076Z,80.00
2018-06-01T16:01:04.742Z,81.40
2018-06-01T16:03:32.266Z,81.30
2018-06-01T16:05:59.852Z,83.30
2018-06-01T16:08:27.348Z,77.50
2018-06-01T16:10:54.841Z,78.20
2018-06-01T16:13:22.349Z,75.00
2018-06-01T16:15:51.790Z,75.60
2018-06-01T16:18:20.099Z,79.10
2018-06-01T16:20:47.606Z,79.10
2018-06-01T16:23:16.158Z,81.50
2018-06-01T16:25:43.638Z,81.10
2018-06-01T16:28:11.200Z,85.00
2018-06-01T16:30:38.715Z,84.60
2018-06-01T16:39:07.578Z,80.80
2018-06-01T16:41:35.097Z,80.70
2018-06-01T16:44:02.617Z,84.80
2018-06-01T16:46:30.900Z,81.60
2018-06-01T16:48:59.167Z,81.50
2018-06-01T16:54:22.801Z,81.90
2018-06-01T16:56:50.318Z,84.70
2018-06-01T16:59:17.853Z,85.40
2018-06-01T17:01:45.439Z,86.90
2018-06-01T17:04:13.731Z,89.00
2018-06-01T17:06:42.053Z,89.70
2018-06-01T17:09:09.553Z,89.80
2018-06-01T17:11:37.898Z,91.80
2018-06-01T17:14:05.393Z,91.80
2018-06-01T17:16:33.690Z,95.10
2018-06-01T17:19:01.200Z,95.10
2018-06-01T17:21:28.723Z,98.20
2018-06-01T17:23:56.320Z,99.90
2018-06-01T17:26:23.826Z,99.90
2018-06-01T17:28:51.406Z,99.90
2018-06-01T17:31:18.955Z,99.90
2018-06-01T17:33:47.292Z,99.90
2018-06-01T17:36:14.826Z,99.90
2018-06-01T17:38:42.359Z,99.90
2018-06-01T17:41:09.968Z,99.90
2018-06-01T17:43:44.700Z,99.90
2018-06-01T17:46:12.978Z,99.90
2018-06-01T17:48:44.655Z,99.90
2018-06-01T17:51:12.201Z,99.90
2018-06-01T17:53:39.724Z,99.90
2018-06-01T17:56:07.927Z,99.90
2018-06-01T17:58:36.244Z,99.90
2018-06-01T18:01:03.849Z,99.90
2018-06-01T18:03:31.498Z,99.90
2018-06-01T18:05:59.045Z,99.90
2018-06-01T18:08:28.605Z,99.90
2018-06-01T18:10:56.146Z,99.90
2018-06-01T18:13:24.513Z,99.90
2018-06-01T18:15:52.034Z,99.90
2018-06-01T18:18:19.572Z,99.90
2018-06-01T18:20:47.106Z,99.90
2018-06-01T18:23:15.417Z,99.90
2018-06-01T18:25:46.813Z,99.90
2018-06-01T18:28:14.382Z,99.90
2018-06-01T18:30:42.685Z,99.90
2018-06-01T18:33:10.241Z,99.90
2018-06-01T18:35:37.777Z,99.90
2018-06-01T18:38:06.077Z,99.90
2018-06-01T18:40:37.951Z,99.90
2018-06-01T18:43:05.509Z,99.90
2018-06-01T18:45:36.804Z,99.90
2018-06-01T18:48:11.986Z,99.90
2018-06-01T18:50:39.519Z,99.90
2018-06-01T18:53:14.173Z,99.90
2018-06-01T18:55:41.729Z,99.90
2018-06-01T18:58:09.245Z,99.90
2018-06-01T19:00:36.823Z,99.90
2018-06-01T19:03:05.152Z,99.90
2018-06-01T19:05:32.688Z,99.90
2018-06-01T19:08:00.312Z,99.90
2018-06-01T19:10:28.615Z,99.90
2018-06-01T19:12:56.167Z,99.90
2018-06-01T19:15:23.782Z,99.90
2018-06-01T19:17:51.407Z,99.90
2018-06-01T19:20:18.963Z,99.90
2018-06-01T19:22:46.520Z,99.90
2018-06-01T19:25:14.041Z,99.90
2018-06-01T19:33:39.743Z,99.90
2018-06-01T19:36:07.263Z,99.90
2018-06-01T19:38:41.932Z,99.90
2018-06-01T19:41:09.469Z,99.90
2018-06-01T19:43:37.026Z,99.90
2018-06-01T19:46:04.554Z,99.90
2018-06-01T19:48:32.056Z,99.90
2018-06-01T19:50:59.568Z,99.90
2018-06-01T19:53:27.174Z,99.90
2018-06-01T19:55:54.702Z,99.90
2018-06-01T19:58:22.255Z,99.90
2018-06-01T20:00:49.766Z,99.90
2018-06-01T20:03:17.309Z,99.90
2018-06-01T20:05:44.853Z,99.90
2018-06-01T20:08:12.414Z,99.90
2018-06-01T20:10:40.696Z,99.90
2018-06-01T20:13:08.242Z,99.90
2018-06-01T20:15:35.746Z,99.90
2018-06-01T20:18:03.307Z,99.90
2018-06-01T20:20:30.858Z,99.90
2018-06-01T20:22:58.361Z,99.90
2018-06-01T20:25:25.923Z,99.90
2018-06-01T20:27:54.250Z,99.90
2018-06-01T20:30:21.853Z,99.90
2018-06-01T20:32:49.369Z,99.90
2018-06-01T20:35:16.930Z,99.90
2018-06-01T20:37:44.461Z,99.90
2018-06-01T20:40:12.021Z,99.90
2018-06-01T20:42:39.541Z,99.90
2018-06-01T20:45:07.099Z,99.90
2018-06-01T20:47:34.700Z,99.90
2018-06-01T20:50:02.219Z,99.90
2018-06-01T20:52:29.812Z,99.90
2018-06-01T20:54:57.310Z,99.90
2018-06-01T20:57:24.883Z,99.90
2018-06-01T20:59:52.437Z,99.90
2018-06-01T21:02:20.036Z,99.90
2018-06-01T21:04:48.325Z,99.90
2018-06-01T21:07:15.829Z,99.90
2018-06-01T21:09:43.410Z,99.90
2018-06-01T21:12:11.793Z,99.90
2018-06-01T21:14:56.728Z,99.90
2018-06-01T21:17:24.277Z,99.90
2018-06-01T21:19:51.846Z,99.90
2018-06-01T21:22:19.374Z,99.90
2018-06-01T21:24:46.911Z,99.90
2018-06-01T21:27:15.244Z,99.90
2018-06-01T21:29:42.813Z,99.90
2018-06-01T21:32:10.378Z,99.90
2018-06-01T21:34:37.979Z,99.90
2018-06-01T21:37:05.520Z,99.90
2018-06-01T21:39:33.849Z,99.90
2018-06-01T21:42:01.446Z,99.90
2018-06-01T21:44:28.958Z,99.90
2018-06-01T21:46:56.499Z,99.90
2018-06-01T21:49:24.048Z,99.90
2018-06-01T21:51:52.397Z,99.90
2018-06-01T21:54:20.026Z,99.90
2018-06-01T21:56:47.566Z,99.90
2018-06-01T21:59:15.126Z,99.90
2018-06-01T22:01:42.667Z,99.90
2018-06-01T22:04:10.221Z,99.90
2018-06-01T22:06:38.487Z,99.90
2018-06-01T22:09:06.783Z,99.90
2018-06-01T22:11:34.298Z,99.90
2018-06-01T22:14:01.846Z,99.90
2018-06-01T22:16:29.386Z,99.90
2018-06-01T22:18:56.897Z,99.90
2018-06-01T22:21:25.288Z,99.90
2018-06-01T22:23:53.579Z,99.90
2018-06-01T22:26:21.103Z,99.90
2018-06-01T22:28:49.361Z,99.90
2018-06-01T22:31:17.153Z,99.90
2018-06-01T22:33:45.443Z,99.90
2018-06-01T22:36:13.008Z,99.90
2018-06-01T22:38:40.536Z,99.90
2018-06-01T22:41:08.860Z,99.90
2018-06-01T22:43:37.543Z,99.90
2018-06-01T22:46:05.105Z,99.90
2018-06-01T22:48:32.646Z,99.90
2018-06-01T22:51:00.141Z,99.90
2018-06-01T22:53:27.670Z,99.90
2018-06-01T22:55:55.204Z,99.90
2018-06-01T22:58:23.529Z,99.90
2018-06-01T23:00:51.067Z,99.90
2018-06-01T23:03:18.599Z,99.90
2018-06-01T23:05:46.899Z,99.90
2018-06-01T23:08:14.422Z,99.90
2018-06-01T23:10:42.707Z,99.90
2018-06-01T23:13:11.001Z,99.90
2018-06-01T23:15:38.576Z,99.90
2018-06-01T23:18:06.089Z,99.90
2018-06-01T23:20:33.655Z,99.90
2018-06-01T23:23:01.980Z,99.90
2018-06-01T23:25:29.571Z,99.90
2018-06-01T23:27:57.108Z,99.90
2018-06-01T23:30:24.728Z,99.90
2018-06-01T23:32:53.003Z,99.90
2018-06-01T23:35:20.534Z,99.90
2018-06-01T23:37:48.078Z,99.90
2018-06-01T23:40:15.601Z,99.90
2018-06-01T23:42:43.121Z,99.90
2018-06-01T23:45:10.622Z,99.90
2018-06-01T23:47:38.160Z,99.90
2018-06-01T23:50:05.670Z,99.90
2018-06-01T23:52:33.251Z,99.90
2018-06-01T23:55:00.798Z,99.90
2018-06-01T23:57:28.389Z,99.90
2018-06-01T23:59:56.692Z,99.90
